»·PEaware :: N544JL KSZP-KSBD

N544JL :: KSZP-KSBD

FLIGHT INFORMATION

Flight Status: Arrived
Operator: Privately registered:
United States
More flights under this callsign
Pilot: Merv A. (1555)
Aircraft: CSA SportCruiser
(CRUZ)
More flights by this aircraft type
Origin: KSZP Santa Paula
United States
Destination: KSBD San Bernardino Intl
United States
More flights between these airports :: More routes between these airports
Route:
File this flight plan on PilotEdge
Remarks: rmmk / Sportcruser
Altitude:
(Current/Filed)
A055
Speed:
(Current/Filed)
100kts
Departed: 24-Oct-14 03:31 PM
Arrived: 24-Oct-14 04:43 PM
Distance/Time
Traveled:
91nm/1:12
Distance/Time
To Go:
Arrived

Flight Plot

Page will automatically refresh every two minutes.


Map Options




Map Legend


Flown Route
Filed Route
Departure Airport
Arrival Airport
Navaid (VOR, NDB)
Fix

Horizontal Profiles

Position Reports

Time Latitude Longitude Heading Altitude Ground
Speed
24-Oct-14 15:08 34.346733 -119.063140 149 248ft 0kts
24-Oct-14 15:09 34.346733 -119.063140 149 248ft 0kts
24-Oct-14 15:10 34.346732 -119.063140 149 248ft 0kts
24-Oct-14 15:11 34.346732 -119.063139 149 248ft 0kts
24-Oct-14 15:12 34.346732 -119.063139 149 248ft 0kts
24-Oct-14 15:13 34.346732 -119.063139 149 248ft 0kts
24-Oct-14 15:14 34.346732 -119.063139 149 248ft 0kts
24-Oct-14 15:15 34.346732 -119.063139 149 248ft 0kts
24-Oct-14 15:16 34.346732 -119.063139 149 248ft 0kts
24-Oct-14 15:17 34.346732 -119.063139 149 248ft 0kts
24-Oct-14 15:18 34.346732 -119.063139 149 248ft 0kts
24-Oct-14 15:19 34.346732 -119.063139 149 248ft 0kts
24-Oct-14 15:20 34.346732 -119.063139 149 248ft 0kts
24-Oct-14 15:21 34.346732 -119.063139 149 248ft 0kts
24-Oct-14 15:22 34.346732 -119.063139 149 248ft 0kts
24-Oct-14 15:23 34.346732 -119.063139 149 248ft 0kts
24-Oct-14 15:24 34.346732 -119.063139 149 248ft 0kts
24-Oct-14 15:25 34.346732 -119.063139 149 248ft 0kts
24-Oct-14 15:26 34.346731 -119.063139 149 248ft 0kts
24-Oct-14 15:27 34.346893 -119.062311 58 248ft 8kts
24-Oct-14 15:28 34.348648 -119.058990 55 248ft 0kts
24-Oct-14 15:29 34.348649 -119.058989 55 248ft 0kts
24-Oct-14 15:30 34.347528 -119.060605 238 248ft 51kts
24-Oct-14 15:31 34.336117 -119.072475 108 736ft 84kts
24-Oct-14 15:32 34.346410 -119.045438 64 1124ft 92kts
24-Oct-14 15:33 34.357352 -119.017747 82 1738ft 86kts
24-Oct-14 15:34 34.362484 -118.988913 73 2371ft 88kts
24-Oct-14 15:35 34.357432 -118.963209 122 3041ft 82kts
24-Oct-14 15:36 34.345191 -118.938579 130 3554ft 85kts
24-Oct-14 15:37 34.330275 -118.914858 138 3913ft 89kts
24-Oct-14 15:38 34.315099 -118.891160 129 4258ft 89kts
24-Oct-14 15:39 34.301562 -118.865807 118 4572ft 90kts
24-Oct-14 15:40 34.293028 -118.836252 120 4874ft 93kts
24-Oct-14 15:41 34.280822 -118.807950 121 5180ft 94kts
24-Oct-14 15:42 34.266728 -118.781325 124 5452ft 94kts
24-Oct-14 15:43 34.253686 -118.752574 124 5584ft 99kts
24-Oct-14 15:44 34.240224 -118.722502 118 5442ft 104kts
24-Oct-14 15:45 34.226187 -118.693970 122 5487ft 98kts
24-Oct-14 15:46 34.212676 -118.665250 129 5540ft 100kts
24-Oct-14 15:47 34.196334 -118.637300 127 5493ft 102kts
24-Oct-14 15:48 34.181174 -118.608106 126 5470ft 101kts
24-Oct-14 15:49 34.164747 -118.580724 132 5502ft 100kts
24-Oct-14 15:50 34.148428 -118.553448 126 5532ft 100kts
24-Oct-14 15:51 34.129984 -118.529076 155 5531ft 97kts
24-Oct-14 15:52 34.105179 -118.515173 157 5527ft 98kts
24-Oct-14 15:53 34.079725 -118.503571 155 5536ft 98kts
24-Oct-14 15:54 34.054840 -118.490036 163 5543ft 97kts
24-Oct-14 15:55 34.029386 -118.478144 160 5551ft 97kts
24-Oct-14 15:56 34.003735 -118.467014 159 5548ft 98kts
24-Oct-14 15:57 33.978633 -118.454355 160 5535ft 98kts
24-Oct-14 15:58 33.952887 -118.443479 159 5474ft 97kts
24-Oct-14 15:59 33.929557 -118.426656 135 5388ft 100kts
24-Oct-14 16:00 33.909869 -118.404055 143 5451ft 98kts
24-Oct-14 16:01 33.888411 -118.383997 146 5486ft 97kts
24-Oct-14 16:02 33.869194 -118.360786 142 5514ft 97kts
24-Oct-14 16:03 33.848621 -118.339601 138 5458ft 97kts
24-Oct-14 16:04 33.828725 -118.316877 141 5417ft 98kts
24-Oct-14 16:05 33.807367 -118.296494 143 5459ft 98kts
24-Oct-14 16:06 33.786812 -118.274708 131 5478ft 100kts
24-Oct-14 16:07 33.775034 -118.243940 123 5498ft 100kts
24-Oct-14 16:08 33.760765 -118.215175 118 5512ft 101kts
24-Oct-14 16:09 33.762534 -118.180188 82 5525ft 107kts
24-Oct-14 16:10 33.766821 -118.144673 91 5538ft 106kts
24-Oct-14 16:11 33.768945 -118.109172 91 5527ft 106kts
24-Oct-14 16:12 33.770272 -118.073663 98 5508ft 105kts
24-Oct-14 16:13 33.770164 -118.038400 87 5480ft 107kts
24-Oct-14 16:14 33.779282 -118.003689 72 5470ft 110kts
24-Oct-14 16:15 33.788037 -117.968486 79 5482ft 108kts
24-Oct-14 16:16 33.804907 -117.937816 48 5471ft 112kts
24-Oct-14 16:17 33.822983 -117.914969 49 5500ft 112kts
24-Oct-14 16:18 33.835056 -117.881139 79 5522ft 109kts
24-Oct-14 16:19 33.843376 -117.845643 74 5494ft 110kts
24-Oct-14 16:20 33.855881 -117.811663 65 5463ft 111kts
24-Oct-14 16:21 33.868512 -117.777951 76 5435ft 110kts
24-Oct-14 16:22 33.874213 -117.741888 85 5413ft 110kts
24-Oct-14 16:23 33.876461 -117.705306 91 5534ft 109kts
24-Oct-14 16:24 33.878742 -117.669119 87 5553ft 108kts
24-Oct-14 16:25 33.884329 -117.633383 74 5557ft 109kts
24-Oct-14 16:26 33.896344 -117.599532 67 5490ft 111kts
24-Oct-14 16:27 33.906428 -117.564848 78 5496ft 109kts
24-Oct-14 16:28 33.914752 -117.530540 72 5085ft 107kts
24-Oct-14 16:29 33.926473 -117.497487 67 4865ft 107kts
24-Oct-14 16:30 33.939602 -117.464685 70 4728ft 108kts
24-Oct-14 16:31 33.950571 -117.430887 71 4649ft 107kts
24-Oct-14 16:32 33.963395 -117.398390 61 4420ft 107kts
24-Oct-14 16:33 33.982801 -117.370793 49 4207ft 108kts
24-Oct-14 16:34 34.001904 -117.343095 56 3932ft 106kts
24-Oct-14 16:35 34.019302 -117.314916 57 3532ft 100kts
24-Oct-14 16:36 34.037149 -117.288749 52 2929ft 98kts
24-Oct-14 16:37 34.055797 -117.267668 25 2407ft 86kts
24-Oct-14 16:38 34.077056 -117.256939 15 2228ft 81kts
24-Oct-14 16:39 34.086728 -117.234229 78 2139ft 81kts
24-Oct-14 16:40 34.092293 -117.210590 76 1841ft 70kts
24-Oct-14 16:41 34.102359 -117.208380 262 1523ft 49kts
24-Oct-14 16:42 34.099381 -117.221326 249 1160ft 19kts
24-Oct-14 16:43 34.099053 -117.224466 286 1160ft 0kts
24-Oct-14 16:44 34.100087 -117.228737 284 1160ft 25kts
24-Oct-14 16:45 34.102262 -117.237651 287 1160ft 27kts
24-Oct-14 16:46 34.103329 -117.243015 244 1160ft 15kts
24-Oct-14 16:47 34.102722 -117.245920 90 1160ft 0kts
24-Oct-14 16:48 34.102722 -117.245920 90 1160ft 0kts
24-Oct-14 16:49 34.102722 -117.245920 90 1160ft 0kts
24-Oct-14 16:50 34.102722 -117.245920 90 1160ft 0kts

Navigation Log

Ident Type
Flight plan parsing failed, navigation log unavailable